createdAt,value
2022-08-28T11:26:06.033Z,24.68
2022-08-28T11:27:06.015Z,25.06
2022-08-28T11:28:06.015Z,25.20
2022-08-28T11:29:06.021Z,25.69
2022-08-28T11:30:06.210Z,25.82
2022-08-28T11:31:06.134Z,26.15
2022-08-28T11:32:05.939Z,26.20
2022-08-28T11:33:05.982Z,25.75
2022-08-28T11:34:05.914Z,25.50
2022-08-28T11:35:05.904Z,26.18
2022-08-28T11:36:05.886Z,26.18
2022-08-28T11:37:05.886Z,25.67
2022-08-28T11:38:05.851Z,25.91
2022-08-28T11:39:05.854Z,26.44
2022-08-28T11:40:05.897Z,26.25
2022-08-28T11:41:05.825Z,26.23
2022-08-28T11:42:05.801Z,26.30
2022-08-28T11:43:05.869Z,26.45
2022-08-28T11:44:05.786Z,26.99
2022-08-28T11:45:05.775Z,27.37
2022-08-28T11:46:05.817Z,27.09
2022-08-28T11:47:05.749Z,27.17
2022-08-28T11:48:05.730Z,27.46
2022-08-28T11:49:05.723Z,27.77
2022-08-28T11:50:05.710Z,27.99
2022-08-28T11:51:05.712Z,27.29
2022-08-28T11:52:13.710Z,26.65
2022-08-28T11:53:05.783Z,26.45
2022-08-28T11:54:05.663Z,26.43
2022-08-28T11:55:05.649Z,26.32
2022-08-28T11:56:05.642Z,26.92
2022-08-28T11:57:05.620Z,26.95
2022-08-28T11:58:26.610Z,27.00
2022-08-28T11:59:07.945Z,26.58
2022-08-28T12:00:05.595Z,27.03
2022-08-28T12:01:05.591Z,27.60
2022-08-28T12:02:05.585Z,27.18
2022-08-28T12:03:05.559Z,27.44
2022-08-28T12:04:08.323Z,27.85
2022-08-28T12:05:05.527Z,27.72
2022-08-28T12:06:05.553Z,27.46
2022-08-28T12:07:05.502Z,27.81
2022-08-28T12:08:05.493Z,27.74
2022-08-28T12:09:05.478Z,28.19
2022-08-28T12:10:05.478Z,27.75
2022-08-28T12:11:05.472Z,26.89
2022-08-28T12:12:05.457Z,27.18
2022-08-28T12:13:05.442Z,26.88
2022-08-28T12:14:05.425Z,26.67
2022-08-28T12:15:05.412Z,26.40
2022-08-28T12:16:05.501Z,26.05
2022-08-28T12:17:05.388Z,26.54
2022-08-28T12:18:05.385Z,26.48
2022-08-28T12:19:05.377Z,26.60
2022-08-28T12:20:05.359Z,25.95
2022-08-28T12:21:05.367Z,26.80
2022-08-28T12:22:05.336Z,26.85
2022-08-28T12:23:05.325Z,27.28
2022-08-28T12:24:09.874Z,27.06
2022-08-28T12:25:05.302Z,27.14
2022-08-28T12:26:05.305Z,27.96
2022-08-28T12:27:05.291Z,28.17
2022-08-28T12:28:05.269Z,28.77
2022-08-28T12:29:05.257Z,29.19
2022-08-28T12:30:05.256Z,29.74
2022-08-28T12:31:05.332Z,29.51
2022-08-28T12:32:05.226Z,29.18
2022-08-28T12:33:05.284Z,27.67
2022-08-28T12:34:05.203Z,27.77
2022-08-28T12:35:05.192Z,28.19
2022-08-28T12:36:05.203Z,28.68
2022-08-28T12:37:05.187Z,29.26
2022-08-28T12:38:05.159Z,28.90
2022-08-28T12:39:05.149Z,29.18
2022-08-28T12:40:05.198Z,29.36
2022-08-28T12:41:05.151Z,29.63
2022-08-28T12:42:05.125Z,29.41
2022-08-28T12:43:05.117Z,28.92
2022-08-28T12:44:05.098Z,28.12
2022-08-28T12:45:05.085Z,28.44
2022-08-28T12:46:05.189Z,28.86
2022-08-28T12:47:05.063Z,28.33
2022-08-28T12:48:05.068Z,28.12
2022-08-28T12:49:05.044Z,28.59
2022-08-28T12:50:05.036Z,29.02
2022-08-28T12:51:05.048Z,29.43
2022-08-28T12:52:05.027Z,29.36
2022-08-28T12:53:05.015Z,29.79
2022-08-28T12:54:04.999Z,29.95
2022-08-28T12:55:04.994Z,29.95
2022-08-28T12:56:04.995Z,29.36
2022-08-28T12:57:04.973Z,29.15
2022-08-28T12:58:04.964Z,28.66
2022-08-28T12:59:04.957Z,28.64
2022-08-28T13:00:04.945Z,28.95
2022-08-28T13:01:04.965Z,27.28
2022-08-28T13:02:04.963Z,27.72
2022-08-28T13:03:04.906Z,27.34
2022-08-28T13:04:04.906Z,27.46
2022-08-28T13:05:04.885Z,28.12
2022-08-28T13:06:04.888Z,28.43
2022-08-28T13:07:04.876Z,28.00
2022-08-28T13:08:04.858Z,28.92
2022-08-28T13:09:04.849Z,28.68
2022-08-28T13:10:04.837Z,28.64
2022-08-28T13:11:04.853Z,27.96
2022-08-28T13:12:06.916Z,28.33
2022-08-28T13:13:15.329Z,29.23
2022-08-28T13:14:04.877Z,28.36
2022-08-28T13:15:04.792Z,27.22
2022-08-28T13:16:04.802Z,27.50
2022-08-28T13:17:04.774Z,27.19
2022-08-28T13:18:04.772Z,28.11
2022-08-28T13:19:04.758Z,28.46
2022-08-28T13:20:04.745Z,29.41
2022-08-28T13:21:04.758Z,28.71
2022-08-28T13:22:04.725Z,28.70
2022-08-28T13:23:04.717Z,27.69
2022-08-28T13:24:04.708Z,27.93
2022-08-28T13:25:04.696Z,27.47
2022-08-28T13:26:04.702Z,28.56
2022-08-28T13:27:04.678Z,28.62
2022-08-28T13:28:04.683Z,28.80
2022-08-28T13:29:04.672Z,29.34
2022-08-28T13:30:04.664Z,30.05
2022-08-28T13:31:04.697Z,29.87
2022-08-28T13:32:04.637Z,30.19
2022-08-28T13:33:04.634Z,29.83
2022-08-28T13:34:04.618Z,29.39
2022-08-28T13:35:04.610Z,29.41
2022-08-28T13:36:04.617Z,28.21
2022-08-28T13:37:07.420Z,28.02
2022-08-28T13:38:04.588Z,27.44
2022-08-28T13:39:04.583Z,28.22
2022-08-28T13:40:10.777Z,28.80
2022-08-28T13:41:04.657Z,29.76
2022-08-28T13:42:04.556Z,30.45
2022-08-28T13:43:04.540Z,31.20
2022-08-28T13:44:04.530Z,30.35
2022-08-28T13:45:04.528Z,29.49
2022-08-28T13:46:04.562Z,29.45
2022-08-28T13:47:04.515Z,29.83
2022-08-28T13:48:04.499Z,30.01
2022-08-28T13:49:04.500Z,29.64
2022-08-28T13:50:04.489Z,29.41
2022-08-28T13:51:04.980Z,29.73
2022-08-28T13:52:04.547Z,29.89
2022-08-28T13:53:04.470Z,29.80
2022-08-28T13:54:04.463Z,29.53
2022-08-28T13:55:04.456Z,29.41
2022-08-28T13:56:04.450Z,29.73
2022-08-28T13:57:04.429Z,30.22
2022-08-28T13:58:04.421Z,30.29
2022-08-28T13:59:04.415Z,30.72
2022-08-28T14:00:04.407Z,31.04
2022-08-28T14:01:04.468Z,30.99
2022-08-28T14:02:04.438Z,29.46
2022-08-28T14:03:04.385Z,27.90
2022-08-28T14:04:04.387Z,27.79
2022-08-28T14:05:04.369Z,27.03
2022-08-28T14:06:04.375Z,27.44
2022-08-28T14:07:04.365Z,28.67
2022-08-28T14:08:04.346Z,29.09
2022-08-28T14:09:04.349Z,29.55
2022-08-28T14:10:04.333Z,29.45
2022-08-28T14:11:04.347Z,29.52
2022-08-28T14:12:04.328Z,29.49
2022-08-28T14:13:04.311Z,29.51
2022-08-28T14:14:04.312Z,30.24
2022-08-28T14:15:04.308Z,30.11
2022-08-28T14:16:04.369Z,30.37
2022-08-28T14:17:04.324Z,30.54
2022-08-28T14:18:04.282Z,30.45
2022-08-28T14:19:04.270Z,30.43
2022-08-28T14:20:04.262Z,30.46
2022-08-28T14:21:04.265Z,30.92
2022-08-28T14:22:04.256Z,30.77
2022-08-28T14:23:04.239Z,30.15
2022-08-28T14:24:04.231Z,30.19
2022-08-28T14:25:04.224Z,30.05
2022-08-28T14:26:04.231Z,30.69
2022-08-28T14:27:04.215Z,30.70
2022-08-28T14:28:04.218Z,30.97
2022-08-28T14:29:04.211Z,30.67
2022-08-28T14:30:04.196Z,30.60
2022-08-28T14:31:04.203Z,30.84
2022-08-28T14:32:04.323Z,31.09
2022-08-28T14:33:04.177Z,31.19
2022-08-28T14:34:04.180Z,30.72
2022-08-28T14:35:04.179Z,30.53
2022-08-28T14:36:04.170Z,30.19
2022-08-28T14:37:04.168Z,30.02
2022-08-28T14:38:04.158Z,30.17
2022-08-28T14:39:06.299Z,30.46
2022-08-28T14:40:04.187Z,30.91
2022-08-28T14:41:04.142Z,31.02
2022-08-28T14:42:04.131Z,30.23
2022-08-28T14:43:04.129Z,29.00
2022-08-28T14:44:04.111Z,29.00
2022-08-28T14:45:04.108Z,29.39
2022-08-28T14:46:07.239Z,29.09
2022-08-28T14:47:04.107Z,28.73
2022-08-28T14:48:04.094Z,28.00
2022-08-28T14:49:04.096Z,27.81
2022-08-28T14:50:04.151Z,27.79
2022-08-28T14:51:04.089Z,28.04
2022-08-28T14:52:04.078Z,27.96
2022-08-28T14:53:04.072Z,28.55
2022-08-28T14:54:04.058Z,29.57
2022-08-28T14:55:04.055Z,29.83
2022-08-28T14:56:04.067Z,30.07
2022-08-28T14:57:04.044Z,28.73
2022-08-28T14:58:04.045Z,29.64
2022-08-28T14:59:04.033Z,28.66
2022-08-28T15:00:04.025Z,28.39
2022-08-28T15:01:04.089Z,28.14
2022-08-28T15:02:04.025Z,27.99
2022-08-28T15:03:04.019Z,28.21
2022-08-28T15:04:04.038Z,27.17
2022-08-28T15:05:03.999Z,27.62
2022-08-28T15:06:04.012Z,27.62
2022-08-28T15:07:03.986Z,26.99
2022-08-28T15:08:03.979Z,27.41
2022-08-28T15:09:03.985Z,28.22
2022-08-28T15:10:03.970Z,28.30
2022-08-28T15:11:03.973Z,29.18
2022-08-28T15:12:03.967Z,29.68
2022-08-28T15:13:03.949Z,30.51
2022-08-28T15:14:03.944Z,30.04
2022-08-28T15:15:03.948Z,30.69
2022-08-28T15:16:03.989Z,30.43
2022-08-28T15:17:04.008Z,30.80
2022-08-28T15:18:03.920Z,30.38
2022-08-28T15:19:03.927Z,30.99
2022-08-28T15:20:03.917Z,30.75
2022-08-28T15:21:03.927Z,30.76
2022-08-28T15:22:03.898Z,30.15
2022-08-28T15:23:03.895Z,28.89
2022-08-28T15:24:03.889Z,28.27
2022-08-28T15:25:03.894Z,28.43
2022-08-28T15:26:03.899Z,28.25
2022-08-28T15:27:03.872Z,27.96
2022-08-28T15:28:03.864Z,27.70
2022-08-28T15:29:03.869Z,27.60
2022-08-28T15:30:03.851Z,27.34
2022-08-28T15:31:03.863Z,27.41
2022-08-28T15:32:03.926Z,27.60
2022-08-28T15:33:03.841Z,27.57
2022-08-28T15:34:03.830Z,28.06
2022-08-28T15:35:03.816Z,28.54
2022-08-28T15:36:03.810Z,29.04
2022-08-28T15:37:03.830Z,29.52
2022-08-28T15:38:03.806Z,30.13
2022-08-28T15:39:03.800Z,29.65
2022-08-28T15:40:03.841Z,28.88
2022-08-28T15:41:03.832Z,29.18
2022-08-28T15:42:03.783Z,29.42
2022-08-28T15:43:03.770Z,29.37
2022-08-28T15:44:03.765Z,28.58
2022-08-28T15:45:03.764Z,27.88
2022-08-28T15:46:03.771Z,27.81
2022-08-28T15:47:03.753Z,28.27
2022-08-28T15:48:03.749Z,28.76
2022-08-28T15:57:46.575Z,27.87
2022-08-28T15:58:46.557Z,27.66
2022-08-28T15:59:49.682Z,27.75
2022-08-28T16:00:46.586Z,28.17
2022-08-28T16:01:46.586Z,28.34
2022-08-28T16:02:46.530Z,28.74
2022-08-28T16:03:46.529Z,29.23
2022-08-28T16:04:46.527Z,29.33
2022-08-28T16:05:46.516Z,29.55
2022-08-28T16:06:46.523Z,29.89
2022-08-28T16:07:46.512Z,29.42
2022-08-28T16:08:46.503Z,29.41
2022-08-28T16:09:46.494Z,29.23
2022-08-28T16:10:46.486Z,29.30
2022-08-28T16:11:46.504Z,29.02
2022-08-28T16:12:47.962Z,28.74
2022-08-28T16:13:46.468Z,28.09
2022-08-28T16:14:46.463Z,28.12
2022-08-28T16:15:46.458Z,27.21
2022-08-28T16:16:49.213Z,27.44
2022-08-28T16:17:46.446Z,27.75
2022-08-28T16:18:46.451Z,27.78
2022-08-28T16:19:46.433Z,28.22
2022-08-28T16:20:46.428Z,28.24
2022-08-28T16:21:46.433Z,28.30
2022-08-28T16:22:46.415Z,28.02
2022-08-28T16:23:46.409Z,27.43
2022-08-28T16:24:46.410Z,26.95
2022-08-28T16:25:46.398Z,26.72
2022-08-28T16:26:46.397Z,26.60
2022-08-28T16:27:46.384Z,27.07
2022-08-28T16:28:46.379Z,26.69
2022-08-28T16:29:46.382Z,26.62
2022-08-28T16:30:46.367Z,26.75
2022-08-28T16:31:46.454Z,26.69
2022-08-28T16:32:46.903Z,26.65
2022-08-28T16:33:46.367Z,26.29
2022-08-28T16:34:46.343Z,25.82
2022-08-28T16:35:49.230Z,25.57
2022-08-28T16:36:46.347Z,26.07
2022-08-28T16:37:46.331Z,25.88
2022-08-28T16:38:46.350Z,25.69
2022-08-28T16:39:46.319Z,25.73
2022-08-28T16:40:46.309Z,25.99
2022-08-28T16:41:46.318Z,26.06
2022-08-28T16:42:51.734Z,26.06
2022-08-28T16:43:46.288Z,25.73
2022-08-28T16:44:46.269Z,25.40
2022-08-28T16:45:46.270Z,25.42
2022-08-28T16:46:46.312Z,25.35
2022-08-28T16:47:46.260Z,25.54
2022-08-28T16:48:46.233Z,25.50
2022-08-28T16:49:46.237Z,25.57
2022-08-28T16:51:48.923Z,25.42
2022-08-28T16:52:48.908Z,25.28
2022-08-28T16:53:48.892Z,25.23
2022-08-28T16:54:48.948Z,25.06
2022-08-28T16:55:48.884Z,25.00
